Nautilus Survey — LIXR — position and weather

sailwx.info

Track history (hours):
 
Tides and Currents Weather Stations Pressure Air Temp Water Temp Dewpoint Dewpoint Depression Visibility Wind Speed Wind Dir Waves Ship Positions

Nautilus Survey

Last reported at 2014-Dec-05 07:25 UTC. Time now 2014-Dec-18 12:32 UTC.
Position N 66°02' E 012°34'.
Warning: this ship's position is 13 days out of date.

Length 22 m; draft 2 m.

Type: Dredging. MMSI: 259464000.

Date/timePositionNaut miles runAvg speedWind from/ knotsBaromVisibWave heightAir tempDewpointWater temp
2014-Dec-05 07:25N 66°02' E 012°34'2 1.5
2014-Dec-05 06:18N 66°01' E 012°38'0 0.0
2014-Dec-05 05:33N 66°01' E 012°38'0 0.0
2014-Dec-05 04:31N 66°01' E 012°38'0 0.0
2014-Dec-05 03:33N 66°01' E 012°38'0 0.0
2014-Dec-05 02:33N 66°01' E 012°38'0 0.0
2014-Dec-05 01:26N 66°01' E 012°38'0 0.0
2014-Dec-05 00:32N 66°01' E 012°38'0 0.0
2014-Dec-04 22:21N 66°01' E 012°38'0 0.1
2014-Dec-04 15:33N 66°01' E 012°39'0 0.4
2014-Dec-04 14:33N 66°01' E 012°38'0 0.0
2014-Dec-04 13:33N 66°01' E 012°38'0 0.0
2014-Dec-04 12:33N 66°01' E 012°38'0 0.0
2014-Dec-04 11:32N 66°01' E 012°38'0 0.0
2014-Dec-04 10:33N 66°01' E 012°38'0 0.4
2014-Dec-04 09:33N 66°01' E 012°39'0 0.0
2014-Dec-04 08:33N 66°01' E 012°39'7 6.7
2014-Dec-04 07:33N 66°01' E 012°22'3 2.7
2014-Dec-04 06:33N 65°60' E 012°16'0 0.0
2014-Dec-04 05:33N 65°60' E 012°16'0 0.0
2014-Dec-04 04:33N 65°60' E 012°16'0 0.0
2014-Dec-04 03:33N 65°60' E 012°16'0 0.0
2014-Dec-04 02:33N 65°60' E 012°16'0 0.0
2014-Dec-04 01:33N 65°60' E 012°16'0 0.0
2014-Dec-04 00:33N 65°60' E 012°16'0 0.0
2014-Dec-03 23:33N 65°60' E 012°16'0 0.0
2014-Dec-03 22:33N 65°60' E 012°16'0 0.0
2014-Dec-03 21:33N 65°60' E 012°16'0 0.0
2014-Dec-03 20:33N 65°60' E 012°16'0 0.0
2014-Dec-03 19:33N 65°60' E 012°16'0 0.0
2014-Dec-03 18:33N 65°60' E 012°16'0 0.0
2014-Dec-03 17:33N 65°60' E 012°16'0 0.0
2014-Dec-03 16:33N 65°60' E 012°16'0 0.0
2014-Dec-03 15:33N 65°60' E 012°16'0 0.0
2014-Dec-03 14:32N 65°60' E 012°16'  
2014-Nov-25 20:06N 66°12' E 012°26'5 9.4
2014-Nov-25 19:34N 66°17' E 012°23'5 5.4
2014-Nov-25 18:33N 66°22' E 012°23'0 0.2
2014-Nov-25 17:33N 66°22' E 012°23'0 0.0
2014-Nov-25 16:33N 66°22' E 012°23'0 0.0
2014-Nov-25 15:33N 66°22' E 012°23'0 0.0
2014-Nov-25 14:33N 66°22' E 012°23'0 0.0
2014-Nov-25 13:33N 66°22' E 012°23'0 0.0
2014-Nov-25 12:33N 66°22' E 012°23'0 0.0
2014-Nov-25 11:33N 66°22' E 012°23'0 0.0
2014-Nov-25 10:33N 66°22' E 012°23'0 0.0
2014-Nov-25 09:33N 66°22' E 012°23'0 0.0
2014-Nov-25 08:33N 66°22' E 012°23'0 0.0
2014-Nov-25 07:33N 66°22' E 012°23'  
Track history (hours):
 
Tides and Currents Weather Stations Pressure Air Temp Water Temp Dewpoint Dewpoint Depression Visibility Wind Speed Wind Dir Waves Ship Positions

Nautilus Survey

Last reported at 2014-Dec-05 07:25 UTC. Time now 2014-Dec-18 12:32 UTC.
Position N 66°02' E 012°34'.
Warning: this ship's position is 13 days out of date.

Length 22 m; draft 2 m.

Type: Dredging. MMSI: 259464000.

Date/timePositionNaut miles runAvg speedWind from/ knotsBaromVisibWave heightAir tempDewpointWater temp
2014-Dec-05 07:25N 66°02' E 012°34'2 1.5
2014-Dec-05 06:18N 66°01' E 012°38'0 0.0
2014-Dec-05 05:33N 66°01' E 012°38'0 0.0
2014-Dec-05 04:31N 66°01' E 012°38'0 0.0
2014-Dec-05 03:33N 66°01' E 012°38'0 0.0
2014-Dec-05 02:33N 66°01' E 012°38'0 0.0
2014-Dec-05 01:26N 66°01' E 012°38'0 0.0
2014-Dec-05 00:32N 66°01' E 012°38'0 0.0
2014-Dec-04 22:21N 66°01' E 012°38'0 0.1
2014-Dec-04 15:33N 66°01' E 012°39'0 0.4
2014-Dec-04 14:33N 66°01' E 012°38'0 0.0
2014-Dec-04 13:33N 66°01' E 012°38'0 0.0
2014-Dec-04 12:33N 66°01' E 012°38'0 0.0
2014-Dec-04 11:32N 66°01' E 012°38'0 0.0
2014-Dec-04 10:33N 66°01' E 012°38'0 0.4
2014-Dec-04 09:33N 66°01' E 012°39'0 0.0
2014-Dec-04 08:33N 66°01' E 012°39'7 6.7
2014-Dec-04 07:33N 66°01' E 012°22'3 2.7
2014-Dec-04 06:33N 65°60' E 012°16'0 0.0
2014-Dec-04 05:33N 65°60' E 012°16'0 0.0
2014-Dec-04 04:33N 65°60' E 012°16'0 0.0
2014-Dec-04 03:33N 65°60' E 012°16'0 0.0
2014-Dec-04 02:33N 65°60' E 012°16'0 0.0
2014-Dec-04 01:33N 65°60' E 012°16'0 0.0
2014-Dec-04 00:33N 65°60' E 012°16'0 0.0
2014-Dec-03 23:33N 65°60' E 012°16'0 0.0
2014-Dec-03 22:33N 65°60' E 012°16'0 0.0
2014-Dec-03 21:33N 65°60' E 012°16'0 0.0
2014-Dec-03 20:33N 65°60' E 012°16'0 0.0
2014-Dec-03 19:33N 65°60' E 012°16'0 0.0
2014-Dec-03 18:33N 65°60' E 012°16'0 0.0
2014-Dec-03 17:33N 65°60' E 012°16'0 0.0
2014-Dec-03 16:33N 65°60' E 012°16'0 0.0
2014-Dec-03 15:33N 65°60' E 012°16'0 0.0
2014-Dec-03 14:32N 65°60' E 012°16'  
2014-Nov-25 20:06N 66°12' E 012°26'5 9.4
2014-Nov-25 19:34N 66°17' E 012°23'5 5.4
2014-Nov-25 18:33N 66°22' E 012°23'0 0.2
2014-Nov-25 17:33N 66°22' E 012°23'0 0.0
2014-Nov-25 16:33N 66°22' E 012°23'0 0.0
2014-Nov-25 15:33N 66°22' E 012°23'0 0.0
2014-Nov-25 14:33N 66°22' E 012°23'0 0.0
2014-Nov-25 13:33N 66°22' E 012°23'0 0.0
2014-Nov-25 12:33N 66°22' E 012°23'0 0.0
2014-Nov-25 11:33N 66°22' E 012°23'0 0.0
2014-Nov-25 10:33N 66°22' E 012°23'0 0.0
2014-Nov-25 09:33N 66°22' E 012°23'0 0.0
2014-Nov-25 08:33N 66°22' E 012°23'0 0.0
2014-Nov-25 07:33N 66°22' E 012°23'  

Dump ship's entire track history